sensor_id;sensor_type;location;lat;lon;timestamp;P1;durP1;ratioP1;P2;durP2;ratioP2
73675;SDS011;61975;48.660;10.164;2022-12-07T00:01:05;8.80;;;3.95;;
73675;SDS011;61975;48.660;10.164;2022-12-07T00:03:32;8.52;;;3.50;;
73675;SDS011;61975;48.660;10.164;2022-12-07T00:05:58;8.02;;;3.63;;
73675;SDS011;61975;48.660;10.164;2022-12-07T00:08:25;9.77;;;4.20;;
73675;SDS011;61975;48.660;10.164;2022-12-07T00:10:50;9.33;;;4.33;;
73675;SDS011;61975;48.660;10.164;2022-12-07T00:13:15;10.63;;;4.80;;
73675;SDS011;61975;48.660;10.164;2022-12-07T00:15:41;9.33;;;4.10;;
73675;SDS011;61975;48.660;10.164;2022-12-07T00:18:06;9.93;;;4.10;;
73675;SDS011;61975;48.660;10.164;2022-12-07T00:20:32;9.60;;;4.10;;
73675;SDS011;61975;48.660;10.164;2022-12-07T00:22:58;10.43;;;4.03;;
73675;SDS011;61975;48.660;10.164;2022-12-07T00:25:24;9.70;;;4.10;;
73675;SDS011;61975;48.660;10.164;2022-12-07T00:27:52;9.93;;;4.55;;
73675;SDS011;61975;48.660;10.164;2022-12-07T00:30:18;10.43;;;4.28;;
73675;SDS011;61975;48.660;10.164;2022-12-07T00:32:43;9.17;;;4.17;;
73675;SDS011;61975;48.660;10.164;2022-12-07T00:35:08;10.80;;;4.37;;
73675;SDS011;61975;48.660;10.164;2022-12-07T00:37:34;9.43;;;4.13;;
73675;SDS011;61975;48.660;10.164;2022-12-07T00:39:59;8.57;;;3.83;;
73675;SDS011;61975;48.660;10.164;2022-12-07T00:42:24;11.18;;;3.90;;
73675;SDS011;61975;48.660;10.164;2022-12-07T00:44:50;9.20;;;3.95;;
73675;SDS011;61975;48.660;10.164;2022-12-07T00:47:15;9.07;;;4.10;;
73675;SDS011;61975;48.660;10.164;2022-12-07T00:49:41;11.50;;;4.07;;
73675;SDS011;61975;48.660;10.164;2022-12-07T00:52:06;10.50;;;4.50;;
73675;SDS011;61975;48.660;10.164;2022-12-07T00:54:32;9.95;;;4.00;;
73675;SDS011;61975;48.660;10.164;2022-12-07T00:56:57;11.18;;;4.35;;
73675;SDS011;61975;48.660;10.164;2022-12-07T00:59:22;11.97;;;4.80;;
73675;SDS011;61975;48.660;10.164;2022-12-07T01:01:48;8.87;;;3.80;;
73675;SDS011;61975;48.660;10.164;2022-12-07T01:04:13;9.93;;;4.03;;
73675;SDS011;61975;48.660;10.164;2022-12-07T01:06:38;9.03;;;3.90;;
73675;SDS011;61975;48.660;10.164;2022-12-07T01:09:04;10.00;;;4.00;;
73675;SDS011;61975;48.660;10.164;2022-12-07T01:11:31;10.43;;;4.25;;
73675;SDS011;61975;48.660;10.164;2022-12-07T01:13:57;11.73;;;4.38;;
73675;SDS011;61975;48.660;10.164;2022-12-07T01:16:24;9.50;;;4.40;;
73675;SDS011;61975;48.660;10.164;2022-12-07T01:18:52;9.63;;;4.10;;
73675;SDS011;61975;48.660;10.164;2022-12-07T01:21:20;10.90;;;4.47;;
73675;SDS011;61975;48.660;10.164;2022-12-07T01:23:47;9.07;;;4.03;;
73675;SDS011;61975;48.660;10.164;2022-12-07T01:26:17;10.00;;;3.92;;
73675;SDS011;61975;48.660;10.164;2022-12-07T01:28:45;12.05;;;4.70;;
73675;SDS011;61975;48.660;10.164;2022-12-07T01:31:14;10.55;;;4.22;;
73675;SDS011;61975;48.660;10.164;2022-12-07T01:33:45;9.45;;;4.13;;
73675;SDS011;61975;48.660;10.164;2022-12-07T01:36:14;11.10;;;4.55;;
73675;SDS011;61975;48.660;10.164;2022-12-07T01:38:45;10.82;;;4.55;;
73675;SDS011;61975;48.660;10.164;2022-12-07T01:41:12;11.50;;;4.60;;
73675;SDS011;61975;48.660;10.164;2022-12-07T01:44:08;11.30;;;4.40;;
73675;SDS011;61975;48.660;10.164;2022-12-07T01:46:32;12.30;;;4.88;;
73675;SDS011;61975;48.660;10.164;2022-12-07T01:48:57;9.80;;;3.87;;
73675;SDS011;61975;48.660;10.164;2022-12-07T01:51:24;9.25;;;4.13;;
73675;SDS011;61975;48.660;10.164;2022-12-07T01:53:50;10.45;;;4.00;;
73675;SDS011;61975;48.660;10.164;2022-12-07T01:56:17;10.87;;;4.20;;
73675;SDS011;61975;48.660;10.164;2022-12-07T01:58:47;10.93;;;4.22;;
73675;SDS011;61975;48.660;10.164;2022-12-07T02:01:14;10.63;;;4.53;;
73675;SDS011;61975;48.660;10.164;2022-12-07T02:03:40;10.63;;;4.50;;
73675;SDS011;61975;48.660;10.164;2022-12-07T02:06:07;11.38;;;4.55;;
73675;SDS011;61975;48.660;10.164;2022-12-07T02:08:35;12.73;;;4.88;;
73675;SDS011;61975;48.660;10.164;2022-12-07T02:11:01;11.73;;;4.37;;
73675;SDS011;61975;48.660;10.164;2022-12-07T02:13:29;10.18;;;4.25;;
73675;SDS011;61975;48.660;10.164;2022-12-07T02:23:39;10.13;;;4.23;;
73675;SDS011;61975;48.660;10.164;2022-12-07T02:29:27;10.02;;;3.97;;
73675;SDS011;61975;48.660;10.164;2022-12-07T02:32:04;10.90;;;4.60;;
73675;SDS011;61975;48.660;10.164;2022-12-07T02:37:51;11.48;;;4.82;;
73675;SDS011;61975;48.660;10.164;2022-12-07T02:43:30;11.60;;;4.32;;
73675;SDS011;61975;48.660;10.164;2022-12-07T02:46:08;10.60;;;3.92;;
73675;SDS011;61975;48.660;10.164;2022-12-07T02:48:38;11.48;;;4.53;;
73675;SDS011;61975;48.660;10.164;2022-12-07T02:51:06;9.67;;;4.37;;
73675;SDS011;61975;48.660;10.164;2022-12-07T02:53:41;6.80;;;3.00;;
73675;SDS011;61975;48.660;10.164;2022-12-07T03:07:42;10.00;;;3.22;;
73675;SDS011;61975;48.660;10.164;2022-12-07T03:10:18;9.48;;;3.35;;
73675;SDS011;61975;48.660;10.164;2022-12-07T03:15:32;7.57;;;3.15;;
73675;SDS011;61975;48.660;10.164;2022-12-07T03:17:59;8.70;;;3.65;;
73675;SDS011;61975;48.660;10.164;2022-12-07T03:20:28;10.65;;;3.63;;
73675;SDS011;61975;48.660;10.164;2022-12-07T03:22:55;8.48;;;3.60;;
73675;SDS011;61975;48.660;10.164;2022-12-07T03:25:22;8.47;;;3.23;;
73675;SDS011;61975;48.660;10.164;2022-12-07T03:30:31;10.55;;;3.85;;
73675;SDS011;61975;48.660;10.164;2022-12-07T03:33:13;9.40;;;3.72;;
73675;SDS011;61975;48.660;10.164;2022-12-07T03:35:48;9.60;;;4.03;;
73675;SDS011;61975;48.660;10.164;2022-12-07T03:38:25;9.43;;;3.73;;
73675;SDS011;61975;48.660;10.164;2022-12-07T03:41:06;10.32;;;4.18;;
73675;SDS011;61975;48.660;10.164;2022-12-07T03:43:40;11.68;;;4.13;;
73675;SDS011;61975;48.660;10.164;2022-12-07T03:48:59;10.10;;;4.00;;
73675;SDS011;61975;48.660;10.164;2022-12-07T03:54:43;10.68;;;3.97;;
73675;SDS011;61975;48.660;10.164;2022-12-07T03:57:14;11.50;;;4.30;;
73675;SDS011;61975;48.660;10.164;2022-12-07T03:59:41;8.77;;;3.70;;
73675;SDS011;61975;48.660;10.164;2022-12-07T04:02:08;11.73;;;3.85;;
73675;SDS011;61975;48.660;10.164;2022-12-07T04:04:37;7.87;;;3.60;;
73675;SDS011;61975;48.660;10.164;2022-12-07T04:07:03;10.57;;;4.13;;
73675;SDS011;61975;48.660;10.164;2022-12-07T04:09:28;10.03;;;3.83;;
73675;SDS011;61975;48.660;10.164;2022-12-07T04:11:54;7.37;;;3.30;;
73675;SDS011;61975;48.660;10.164;2022-12-07T04:14:20;8.38;;;3.00;;
73675;SDS011;61975;48.660;10.164;2022-12-07T04:16:49;9.33;;;3.67;;
73675;SDS011;61975;48.660;10.164;2022-12-07T04:19:19;8.48;;;3.72;;
73675;SDS011;61975;48.660;10.164;2022-12-07T04:21:46;10.73;;;4.05;;
73675;SDS011;61975;48.660;10.164;2022-12-07T04:24:13;9.87;;;3.90;;
73675;SDS011;61975;48.660;10.164;2022-12-07T04:26:40;8.70;;;4.07;;
73675;SDS011;61975;48.660;10.164;2022-12-07T04:29:06;9.52;;;3.72;;
73675;SDS011;61975;48.660;10.164;2022-12-07T04:31:31;9.70;;;4.50;;
73675;SDS011;61975;48.660;10.164;2022-12-07T04:33:57;9.03;;;4.07;;
73675;SDS011;61975;48.660;10.164;2022-12-07T04:36:22;10.27;;;3.80;;
73675;SDS011;61975;48.660;10.164;2022-12-07T04:38:48;10.20;;;4.00;;
73675;SDS011;61975;48.660;10.164;2022-12-07T04:41:13;11.03;;;4.20;;
73675;SDS011;61975;48.660;10.164;2022-12-07T04:43:39;10.37;;;4.70;;
73675;SDS011;61975;48.660;10.164;2022-12-07T04:46:04;10.43;;;4.18;;
73675;SDS011;61975;48.660;10.164;2022-12-07T04:48:30;10.52;;;4.40;;
73675;SDS011;61975;48.660;10.164;2022-12-07T04:50:56;11.18;;;4.40;;
73675;SDS011;61975;48.660;10.164;2022-12-07T04:53:21;11.23;;;4.40;;
73675;SDS011;61975;48.660;10.164;2022-12-07T04:55:47;11.55;;;4.85;;
73675;SDS011;61975;48.660;10.164;2022-12-07T04:58:13;11.20;;;4.87;;
73675;SDS011;61975;48.660;10.164;2022-12-07T05:00:38;11.93;;;4.90;;
73675;SDS011;61975;48.660;10.164;2022-12-07T05:03:04;12.35;;;4.97;;
73675;SDS011;61975;48.660;10.164;2022-12-07T05:05:30;11.27;;;4.20;;
73675;SDS011;61975;48.660;10.164;2022-12-07T05:07:55;11.03;;;4.40;;
73675;SDS011;61975;48.660;10.164;2022-12-07T05:10:21;12.20;;;4.60;;
73675;SDS011;61975;48.660;10.164;2022-12-07T05:12:46;11.20;;;4.47;;
73675;SDS011;61975;48.660;10.164;2022-12-07T05:15:12;12.10;;;4.88;;
73675;SDS011;61975;48.660;10.164;2022-12-07T05:17:38;10.70;;;4.57;;
73675;SDS011;61975;48.660;10.164;2022-12-07T05:20:04;10.63;;;4.43;;
73675;SDS011;61975;48.660;10.164;2022-12-07T05:22:30;12.82;;;5.25;;
73675;SDS011;61975;48.660;10.164;2022-12-07T05:24:56;13.33;;;5.40;;
73675;SDS011;61975;48.660;10.164;2022-12-07T05:27:21;11.03;;;4.30;;
73675;SDS011;61975;48.660;10.164;2022-12-07T05:29:47;11.40;;;4.60;;
73675;SDS011;61975;48.660;10.164;2022-12-07T05:32:12;9.77;;;4.40;;
73675;SDS011;61975;48.660;10.164;2022-12-07T05:34:37;9.93;;;4.37;;
73675;SDS011;61975;48.660;10.164;2022-12-07T05:37:03;13.17;;;5.17;;
73675;SDS011;61975;48.660;10.164;2022-12-07T05:39:28;12.93;;;4.80;;
73675;SDS011;61975;48.660;10.164;2022-12-07T05:41:54;11.25;;;4.85;;
73675;SDS011;61975;48.660;10.164;2022-12-07T05:44:41;12.43;;;5.18;;
73675;SDS011;61975;48.660;10.164;2022-12-07T05:47:08;11.48;;;4.53;;
73675;SDS011;61975;48.660;10.164;2022-12-07T05:49:33;12.63;;;4.87;;
73675;SDS011;61975;48.660;10.164;2022-12-07T05:51:59;13.85;;;5.07;;
73675;SDS011;61975;48.660;10.164;2022-12-07T05:54:24;11.57;;;4.83;;
73675;SDS011;61975;48.660;10.164;2022-12-07T05:56:50;12.60;;;4.70;;
73675;SDS011;61975;48.660;10.164;2022-12-07T05:59:15;13.40;;;4.90;;
73675;SDS011;61975;48.660;10.164;2022-12-07T06:01:47;12.37;;;4.70;;
73675;SDS011;61975;48.660;10.164;2022-12-07T06:04:17;10.25;;;4.45;;
73675;SDS011;61975;48.660;10.164;2022-12-07T06:06:43;13.65;;;5.45;;
73675;SDS011;61975;48.660;10.164;2022-12-07T06:09:09;12.87;;;5.13;;
73675;SDS011;61975;48.660;10.164;2022-12-07T06:11:34;13.77;;;5.57;;
73675;SDS011;61975;48.660;10.164;2022-12-07T06:14:18;13.95;;;5.45;;
73675;SDS011;61975;48.660;10.164;2022-12-07T06:16:44;16.13;;;5.90;;
73675;SDS011;61975;48.660;10.164;2022-12-07T06:19:09;12.17;;;5.00;;
73675;SDS011;61975;48.660;10.164;2022-12-07T06:21:35;13.87;;;4.87;;
73675;SDS011;61975;48.660;10.164;2022-12-07T06:24:00;10.43;;;4.60;;
73675;SDS011;61975;48.660;10.164;2022-12-07T06:26:25;14.23;;;5.38;;
73675;SDS011;61975;48.660;10.164;2022-12-07T06:28:51;13.23;;;4.77;;
73675;SDS011;61975;48.660;10.164;2022-12-07T06:31:16;13.80;;;5.53;;
73675;SDS011;61975;48.660;10.164;2022-12-07T06:33:42;13.33;;;4.67;;
73675;SDS011;61975;48.660;10.164;2022-12-07T06:36:08;14.00;;;5.22;;
73675;SDS011;61975;48.660;10.164;2022-12-07T06:38:34;13.95;;;5.25;;
73675;SDS011;61975;48.660;10.164;2022-12-07T06:41:00;14.30;;;5.33;;
73675;SDS011;61975;48.660;10.164;2022-12-07T06:43:25;14.20;;;5.32;;
73675;SDS011;61975;48.660;10.164;2022-12-07T06:45:50;11.60;;;4.77;;
73675;SDS011;61975;48.660;10.164;2022-12-07T06:48:16;11.77;;;5.50;;
73675;SDS011;61975;48.660;10.164;2022-12-07T06:50:44;11.13;;;4.33;;
73675;SDS011;61975;48.660;10.164;2022-12-07T06:53:10;11.73;;;4.47;;
73675;SDS011;61975;48.660;10.164;2022-12-07T06:55:35;12.37;;;4.70;;
73675;SDS011;61975;48.660;10.164;2022-12-07T06:58:00;13.10;;;4.97;;
73675;SDS011;61975;48.660;10.164;2022-12-07T07:00:27;10.75;;;4.47;;
73675;SDS011;61975;48.660;10.164;2022-12-07T07:02:53;12.95;;;4.80;;
73675;SDS011;61975;48.660;10.164;2022-12-07T07:05:18;12.40;;;4.83;;
73675;SDS011;61975;48.660;10.164;2022-12-07T07:07:46;15.18;;;5.80;;
73675;SDS011;61975;48.660;10.164;2022-12-07T07:10:12;10.23;;;4.13;;
73675;SDS011;61975;48.660;10.164;2022-12-07T07:12:39;11.73;;;5.03;;
73675;SDS011;61975;48.660;10.164;2022-12-07T07:15:05;11.17;;;4.80;;
73675;SDS011;61975;48.660;10.164;2022-12-07T07:17:30;12.73;;;4.80;;
73675;SDS011;61975;48.660;10.164;2022-12-07T07:19:56;13.27;;;4.87;;
73675;SDS011;61975;48.660;10.164;2022-12-07T07:22:21;11.53;;;4.57;;
73675;SDS011;61975;48.660;10.164;2022-12-07T07:24:46;12.10;;;4.60;;
73675;SDS011;61975;48.660;10.164;2022-12-07T07:27:12;12.50;;;4.67;;
73675;SDS011;61975;48.660;10.164;2022-12-07T07:29:37;12.63;;;5.00;;
73675;SDS011;61975;48.660;10.164;2022-12-07T07:32:02;13.63;;;5.70;;
73675;SDS011;61975;48.660;10.164;2022-12-07T07:34:28;12.97;;;5.70;;
73675;SDS011;61975;48.660;10.164;2022-12-07T07:36:54;11.80;;;5.15;;
73675;SDS011;61975;48.660;10.164;2022-12-07T07:39:19;12.97;;;4.70;;
73675;SDS011;61975;48.660;10.164;2022-12-07T07:41:44;15.77;;;6.43;;
73675;SDS011;61975;48.660;10.164;2022-12-07T07:44:10;12.27;;;5.05;;
73675;SDS011;61975;48.660;10.164;2022-12-07T07:46:36;15.40;;;5.77;;
73675;SDS011;61975;48.660;10.164;2022-12-07T07:49:01;13.63;;;5.80;;
73675;SDS011;61975;48.660;10.164;2022-12-07T07:51:27;14.90;;;5.90;;
73675;SDS011;61975;48.660;10.164;2022-12-07T07:53:52;14.53;;;5.60;;
73675;SDS011;61975;48.660;10.164;2022-12-07T07:56:17;15.73;;;6.15;;
73675;SDS011;61975;48.660;10.164;2022-12-07T07:58:43;15.43;;;5.63;;
73675;SDS011;61975;48.660;10.164;2022-12-07T08:01:08;12.13;;;5.60;;
73675;SDS011;61975;48.660;10.164;2022-12-07T08:03:34;14.60;;;5.27;;
73675;SDS011;61975;48.660;10.164;2022-12-07T08:06:01;12.88;;;5.18;;
73675;SDS011;61975;48.660;10.164;2022-12-07T08:08:27;12.85;;;4.70;;
73675;SDS011;61975;48.660;10.164;2022-12-07T08:10:53;12.87;;;4.90;;
73675;SDS011;61975;48.660;10.164;2022-12-07T08:13:18;14.37;;;5.00;;
73675;SDS011;61975;48.660;10.164;2022-12-07T08:15:44;12.33;;;4.80;;
73675;SDS011;61975;48.660;10.164;2022-12-07T08:18:12;11.48;;;4.82;;
73675;SDS011;61975;48.660;10.164;2022-12-07T08:20:38;11.90;;;4.68;;
73675;SDS011;61975;48.660;10.164;2022-12-07T08:23:05;11.57;;;4.10;;
73675;SDS011;61975;48.660;10.164;2022-12-07T08:25:31;12.30;;;4.63;;
73675;SDS011;61975;48.660;10.164;2022-12-07T08:27:58;11.20;;;4.28;;
73675;SDS011;61975;48.660;10.164;2022-12-07T08:30:23;10.87;;;4.07;;
73675;SDS011;61975;48.660;10.164;2022-12-07T08:32:49;11.07;;;3.80;;
73675;SDS011;61975;48.660;10.164;2022-12-07T08:35:15;10.23;;;3.97;;
73675;SDS011;61975;48.660;10.164;2022-12-07T08:37:40;10.20;;;4.22;;
73675;SDS011;61975;48.660;10.164;2022-12-07T08:40:07;10.63;;;3.83;;
73675;SDS011;61975;48.660;10.164;2022-12-07T08:42:34;9.73;;;3.50;;
73675;SDS011;61975;48.660;10.164;2022-12-07T08:45:08;10.77;;;4.07;;
73675;SDS011;61975;48.660;10.164;2022-12-07T08:47:36;8.65;;;3.92;;
73675;SDS011;61975;48.660;10.164;2022-12-07T08:50:04;10.30;;;3.70;;
73675;SDS011;61975;48.660;10.164;2022-12-07T08:52:32;11.07;;;4.20;;
73675;SDS011;61975;48.660;10.164;2022-12-07T08:54:59;9.27;;;3.58;;
73675;SDS011;61975;48.660;10.164;2022-12-07T08:57:26;13.20;;;4.85;;
73675;SDS011;61975;48.660;10.164;2022-12-07T08:59:52;32.47;;;10.07;;
73675;SDS011;61975;48.660;10.164;2022-12-07T09:02:18;17.90;;;6.37;;
73675;SDS011;61975;48.660;10.164;2022-12-07T09:04:43;8.77;;;3.67;;
73675;SDS011;61975;48.660;10.164;2022-12-07T09:07:09;8.47;;;3.73;;
73675;SDS011;61975;48.660;10.164;2022-12-07T09:09:34;10.05;;;3.58;;
73675;SDS011;61975;48.660;10.164;2022-12-07T09:11:59;12.30;;;5.23;;
73675;SDS011;61975;48.660;10.164;2022-12-07T09:14:25;8.83;;;3.40;;
73675;SDS011;61975;48.660;10.164;2022-12-07T09:19:18;8.25;;;3.20;;
73675;SDS011;61975;48.660;10.164;2022-12-07T09:21:44;9.40;;;3.10;;
73675;SDS011;61975;48.660;10.164;2022-12-07T09:24:09;7.63;;;2.67;;
73675;SDS011;61975;48.660;10.164;2022-12-07T09:26:37;8.00;;;3.30;;
73675;SDS011;61975;48.660;10.164;2022-12-07T09:29:04;8.10;;;3.13;;
73675;SDS011;61975;48.660;10.164;2022-12-07T09:31:30;10.02;;;3.95;;
73675;SDS011;61975;48.660;10.164;2022-12-07T09:33:56;7.93;;;3.50;;
73675;SDS011;61975;48.660;10.164;2022-12-07T09:36:22;8.07;;;3.28;;
73675;SDS011;61975;48.660;10.164;2022-12-07T09:38:48;8.70;;;3.10;;
73675;SDS011;61975;48.660;10.164;2022-12-07T09:41:13;6.50;;;2.67;;
73675;SDS011;61975;48.660;10.164;2022-12-07T09:43:40;8.53;;;3.30;;
73675;SDS011;61975;48.660;10.164;2022-12-07T09:46:08;6.85;;;3.08;;
73675;SDS011;61975;48.660;10.164;2022-12-07T09:48:38;6.82;;;3.13;;
73675;SDS011;61975;48.660;10.164;2022-12-07T09:51:20;7.43;;;3.00;;
73675;SDS011;61975;48.660;10.164;2022-12-07T09:53:48;6.75;;;2.83;;
73675;SDS011;61975;48.660;10.164;2022-12-07T09:56:15;8.20;;;3.00;;
73675;SDS011;61975;48.660;10.164;2022-12-07T09:58:42;7.35;;;3.22;;
73675;SDS011;61975;48.660;10.164;2022-12-07T10:03:48;7.90;;;3.58;;
73675;SDS011;61975;48.660;10.164;2022-12-07T10:06:16;7.32;;;3.05;;
73675;SDS011;61975;48.660;10.164;2022-12-07T10:08:42;8.57;;;3.10;;
73675;SDS011;61975;48.660;10.164;2022-12-07T10:11:08;7.00;;;3.30;;
73675;SDS011;61975;48.660;10.164;2022-12-07T10:18:53;7.85;;;3.15;;
73675;SDS011;61975;48.660;10.164;2022-12-07T10:21:23;8.20;;;3.47;;
73675;SDS011;61975;48.660;10.164;2022-12-07T10:24:03;6.40;;;2.80;;
73675;SDS011;61975;48.660;10.164;2022-12-07T10:26:33;6.88;;;2.80;;
73675;SDS011;61975;48.660;10.164;2022-12-07T10:31:36;6.85;;;3.10;;
73675;SDS011;61975;48.660;10.164;2022-12-07T10:34:09;8.13;;;2.97;;
73675;SDS011;61975;48.660;10.164;2022-12-07T10:36:47;7.93;;;3.00;;
73675;SDS011;61975;48.660;10.164;2022-12-07T10:39:17;8.63;;;3.57;;
73675;SDS011;61975;48.660;10.164;2022-12-07T10:44:32;8.40;;;3.47;;
73675;SDS011;61975;48.660;10.164;2022-12-07T10:50:02;9.88;;;3.75;;
73675;SDS011;61975;48.660;10.164;2022-12-07T10:55:20;6.70;;;3.10;;
73675;SDS011;61975;48.660;10.164;2022-12-07T11:00:21;6.90;;;2.77;;
73675;SDS011;61975;48.660;10.164;2022-12-07T11:02:59;6.38;;;2.80;;
73675;SDS011;61975;48.660;10.164;2022-12-07T11:11:16;6.13;;;2.50;;
73675;SDS011;61975;48.660;10.164;2022-12-07T11:14:13;6.05;;;2.70;;
73675;SDS011;61975;48.660;10.164;2022-12-07T11:17:07;6.15;;;2.70;;
73675;SDS011;61975;48.660;10.164;2022-12-07T11:27:52;7.35;;;2.88;;
73675;SDS011;61975;48.660;10.164;2022-12-07T11:36:37;9.93;;;3.60;;
73675;SDS011;61975;48.660;10.164;2022-12-07T11:41:57;8.95;;;3.65;;
73675;SDS011;61975;48.660;10.164;2022-12-07T11:47:20;8.27;;;3.45;;
73675;SDS011;61975;48.660;10.164;2022-12-07T11:52:51;7.03;;;2.85;;
73675;SDS011;61975;48.660;10.164;2022-12-07T11:58:57;7.90;;;3.20;;
73675;SDS011;61975;48.660;10.164;2022-12-07T12:03:50;7.30;;;2.80;;
73675;SDS011;61975;48.660;10.164;2022-12-07T12:06:19;7.03;;;2.95;;
73675;SDS011;61975;48.660;10.164;2022-12-07T12:08:54;8.95;;;3.47;;
73675;SDS011;61975;48.660;10.164;2022-12-07T12:20:00;7.97;;;3.20;;
73675;SDS011;61975;48.660;10.164;2022-12-07T12:22:23;8.43;;;3.27;;
73675;SDS011;61975;48.660;10.164;2022-12-07T12:25:22;8.35;;;2.92;;
73675;SDS011;61975;48.660;10.164;2022-12-07T12:28:20;7.60;;;3.40;;
73675;SDS011;61975;48.660;10.164;2022-12-07T12:31:04;7.28;;;2.80;;
73675;SDS011;61975;48.660;10.164;2022-12-07T12:33:36;11.43;;;4.10;;
73675;SDS011;61975;48.660;10.164;2022-12-07T12:44:38;6.80;;;2.75;;
73675;SDS011;61975;48.660;10.164;2022-12-07T12:51:51;8.30;;;3.20;;
73675;SDS011;61975;48.660;10.164;2022-12-07T12:56:48;6.93;;;2.87;;
73675;SDS011;61975;48.660;10.164;2022-12-07T13:15:49;7.50;;;2.88;;
73675;SDS011;61975;48.660;10.164;2022-12-07T13:28:45;7.35;;;2.90;;
73675;SDS011;61975;48.660;10.164;2022-12-07T13:31:22;6.85;;;3.00;;
73675;SDS011;61975;48.660;10.164;2022-12-07T13:33:55;8.75;;;2.92;;
73675;SDS011;61975;48.660;10.164;2022-12-07T13:36:21;7.70;;;2.80;;
73675;SDS011;61975;48.660;10.164;2022-12-07T13:41:20;4.93;;;2.07;;
73675;SDS011;61975;48.660;10.164;2022-12-07T13:44:05;5.47;;;2.38;;
73675;SDS011;61975;48.660;10.164;2022-12-07T13:46:43;5.50;;;2.42;;
73675;SDS011;61975;48.660;10.164;2022-12-07T13:49:26;7.40;;;2.70;;
73675;SDS011;61975;48.660;10.164;2022-12-07T13:51:54;6.47;;;2.83;;
73675;SDS011;61975;48.660;10.164;2022-12-07T13:54:31;6.53;;;2.53;;
73675;SDS011;61975;48.660;10.164;2022-12-07T13:56:57;5.75;;;2.45;;
73675;SDS011;61975;48.660;10.164;2022-12-07T13:59:23;7.80;;;2.70;;
73675;SDS011;61975;48.660;10.164;2022-12-07T14:01:50;6.40;;;2.50;;
73675;SDS011;61975;48.660;10.164;2022-12-07T14:06:49;8.30;;;3.17;;
73675;SDS011;61975;48.660;10.164;2022-12-07T14:09:22;9.30;;;3.28;;
73675;SDS011;61975;48.660;10.164;2022-12-07T14:11:50;6.95;;;3.00;;
73675;SDS011;61975;48.660;10.164;2022-12-07T14:14:19;7.43;;;3.10;;
73675;SDS011;61975;48.660;10.164;2022-12-07T14:16:56;7.90;;;3.00;;
73675;SDS011;61975;48.660;10.164;2022-12-07T14:25:15;9.57;;;3.45;;
73675;SDS011;61975;48.660;10.164;2022-12-07T14:30:21;7.87;;;3.50;;
73675;SDS011;61975;48.660;10.164;2022-12-07T14:32:53;9.40;;;3.10;;
73675;SDS011;61975;48.660;10.164;2022-12-07T14:35:21;15.88;;;5.45;;
73675;SDS011;61975;48.660;10.164;2022-12-07T14:37:47;9.40;;;3.47;;
73675;SDS011;61975;48.660;10.164;2022-12-07T14:40:15;9.20;;;3.42;;
73675;SDS011;61975;48.660;10.164;2022-12-07T14:42:45;7.72;;;3.58;;
73675;SDS011;61975;48.660;10.164;2022-12-07T14:45:13;10.18;;;3.90;;
73675;SDS011;61975;48.660;10.164;2022-12-07T14:47:42;9.05;;;3.67;;
73675;SDS011;61975;48.660;10.164;2022-12-07T14:50:07;9.43;;;4.47;;
73675;SDS011;61975;48.660;10.164;2022-12-07T14:52:35;9.40;;;3.60;;
73675;SDS011;61975;48.660;10.164;2022-12-07T14:55:01;8.53;;;3.13;;
73675;SDS011;61975;48.660;10.164;2022-12-07T14:57:26;8.27;;;3.42;;
73675;SDS011;61975;48.660;10.164;2022-12-07T14:59:52;9.83;;;3.90;;
73675;SDS011;61975;48.660;10.164;2022-12-07T15:02:17;9.10;;;3.47;;
73675;SDS011;61975;48.660;10.164;2022-12-07T15:04:42;12.47;;;4.10;;
73675;SDS011;61975;48.660;10.164;2022-12-07T15:07:20;11.93;;;4.60;;
73675;SDS011;61975;48.660;10.164;2022-12-07T15:09:46;11.07;;;3.85;;
73675;SDS011;61975;48.660;10.164;2022-12-07T15:12:13;6.97;;;2.97;;
73675;SDS011;61975;48.660;10.164;2022-12-07T15:14:38;9.40;;;4.10;;
73675;SDS011;61975;48.660;10.164;2022-12-07T15:17:04;15.57;;;5.20;;
73675;SDS011;61975;48.660;10.164;2022-12-07T15:19:29;8.77;;;3.90;;
73675;SDS011;61975;48.660;10.164;2022-12-07T15:21:55;9.20;;;3.97;;
73675;SDS011;61975;48.660;10.164;2022-12-07T15:24:21;10.90;;;4.25;;
73675;SDS011;61975;48.660;10.164;2022-12-07T15:26:49;11.65;;;4.50;;
73675;SDS011;61975;48.660;10.164;2022-12-07T15:29:14;8.90;;;4.18;;
73675;SDS011;61975;48.660;10.164;2022-12-07T15:31:40;7.93;;;3.35;;
73675;SDS011;61975;48.660;10.164;2022-12-07T15:34:06;10.73;;;3.87;;
73675;SDS011;61975;48.660;10.164;2022-12-07T15:36:32;9.57;;;3.33;;
73675;SDS011;61975;48.660;10.164;2022-12-07T15:38:58;12.50;;;4.47;;
73675;SDS011;61975;48.660;10.164;2022-12-07T15:41:24;9.93;;;3.90;;
73675;SDS011;61975;48.660;10.164;2022-12-07T15:43:50;14.60;;;5.82;;
73675;SDS011;61975;48.660;10.164;2022-12-07T15:46:35;13.52;;;5.13;;
73675;SDS011;61975;48.660;10.164;2022-12-07T15:49:02;16.08;;;5.97;;
73675;SDS011;61975;48.660;10.164;2022-12-07T15:51:28;10.18;;;4.25;;
73675;SDS011;61975;48.660;10.164;2022-12-07T15:53:54;16.70;;;5.97;;
73675;SDS011;61975;48.660;10.164;2022-12-07T15:56:19;11.70;;;4.93;;
73675;SDS011;61975;48.660;10.164;2022-12-07T15:58:45;8.67;;;3.97;;
73675;SDS011;61975;48.660;10.164;2022-12-07T16:01:14;8.82;;;4.18;;
73675;SDS011;61975;48.660;10.164;2022-12-07T16:03:42;12.98;;;4.75;;
73675;SDS011;61975;48.660;10.164;2022-12-07T16:06:08;10.43;;;4.93;;
73675;SDS011;61975;48.660;10.164;2022-12-07T16:08:34;10.35;;;4.63;;
73675;SDS011;61975;48.660;10.164;2022-12-07T16:10:59;10.50;;;3.83;;
73675;SDS011;61975;48.660;10.164;2022-12-07T16:13:25;11.07;;;4.50;;
73675;SDS011;61975;48.660;10.164;2022-12-07T16:15:50;12.80;;;4.80;;
73675;SDS011;61975;48.660;10.164;2022-12-07T16:18:16;9.83;;;4.23;;
73675;SDS011;61975;48.660;10.164;2022-12-07T16:20:41;10.13;;;4.27;;
73675;SDS011;61975;48.660;10.164;2022-12-07T16:23:06;12.07;;;4.50;;
73675;SDS011;61975;48.660;10.164;2022-12-07T16:25:32;8.52;;;4.13;;
73675;SDS011;61975;48.660;10.164;2022-12-07T16:27:58;10.63;;;4.73;;
73675;SDS011;61975;48.660;10.164;2022-12-07T16:30:23;10.80;;;4.82;;
73675;SDS011;61975;48.660;10.164;2022-12-07T16:32:50;11.07;;;5.07;;
73675;SDS011;61975;48.660;10.164;2022-12-07T16:35:16;12.60;;;5.50;;
73675;SDS011;61975;48.660;10.164;2022-12-07T16:37:42;12.75;;;5.45;;
73675;SDS011;61975;48.660;10.164;2022-12-07T16:40:07;9.93;;;4.47;;
73675;SDS011;61975;48.660;10.164;2022-12-07T16:42:34;12.75;;;5.10;;
73675;SDS011;61975;48.660;10.164;2022-12-07T16:45:01;13.60;;;5.22;;
73675;SDS011;61975;48.660;10.164;2022-12-07T16:47:27;13.45;;;5.00;;
73675;SDS011;61975;48.660;10.164;2022-12-07T16:49:52;11.47;;;5.03;;
73675;SDS011;61975;48.660;10.164;2022-12-07T16:52:21;12.43;;;4.73;;
73675;SDS011;61975;48.660;10.164;2022-12-07T16:54:47;14.23;;;5.80;;
73675;SDS011;61975;48.660;10.164;2022-12-07T16:57:13;13.60;;;5.93;;
73675;SDS011;61975;48.660;10.164;2022-12-07T16:59:39;13.10;;;5.13;;
73675;SDS011;61975;48.660;10.164;2022-12-07T17:02:04;12.00;;;5.20;;
73675;SDS011;61975;48.660;10.164;2022-12-07T17:04:31;13.55;;;4.95;;
73675;SDS011;61975;48.660;10.164;2022-12-07T17:06:58;14.43;;;5.30;;
73675;SDS011;61975;48.660;10.164;2022-12-07T17:09:24;15.00;;;6.00;;
73675;SDS011;61975;48.660;10.164;2022-12-07T17:11:52;21.20;;;7.45;;
73675;SDS011;61975;48.660;10.164;2022-12-07T17:14:17;18.00;;;6.63;;